createdAt,value
2019-03-04T00:00:52.408Z,11.36
2019-03-04T00:01:52.393Z,11.38
2019-03-04T00:02:52.455Z,11.34
2019-03-04T00:03:52.360Z,11.40
2019-03-04T00:04:52.372Z,11.45
2019-03-04T00:05:52.335Z,11.45
2019-03-04T00:06:52.397Z,11.43
2019-03-04T00:07:52.340Z,11.38
2019-03-04T00:08:52.318Z,11.38
2019-03-04T00:09:52.313Z,11.48
2019-03-04T00:10:52.276Z,11.45
2019-03-04T00:11:52.302Z,11.49
2019-03-04T00:12:52.319Z,11.51
2019-03-04T00:13:52.262Z,11.49
2019-03-04T00:14:52.313Z,11.48
2019-03-04T00:15:52.244Z,11.52
2019-03-04T00:16:52.253Z,11.48
2019-03-04T00:17:52.244Z,11.45
2019-03-04T00:18:52.200Z,11.43
2019-03-04T00:19:52.205Z,11.45
2019-03-04T00:20:52.189Z,11.52
2019-03-04T00:21:52.180Z,11.52
2019-03-04T00:22:52.157Z,11.52
2019-03-04T00:23:52.173Z,11.55
2019-03-04T00:24:52.167Z,11.56
2019-03-04T00:25:52.131Z,11.55
2019-03-04T00:26:52.118Z,11.58
2019-03-04T00:27:52.101Z,11.56
2019-03-04T00:28:52.087Z,11.56
2019-03-04T00:29:52.113Z,11.51
2019-03-04T00:30:52.074Z,11.58
2019-03-04T00:31:52.068Z,11.59
2019-03-04T00:32:52.115Z,11.52
2019-03-04T00:33:52.086Z,11.54
2019-03-04T00:34:52.033Z,11.56
2019-03-04T00:35:52.054Z,11.59
2019-03-04T00:36:52.016Z,11.52
2019-03-04T00:37:52.007Z,11.52
2019-03-04T00:38:52.022Z,11.59
2019-03-04T00:39:52.011Z,11.59
2019-03-04T00:40:51.975Z,11.56
2019-03-04T00:41:51.951Z,11.48
2019-03-04T00:42:51.921Z,11.61
2019-03-04T00:43:51.983Z,11.61
2019-03-04T00:44:51.953Z,11.59
2019-03-04T00:45:51.923Z,11.66
2019-03-04T00:46:51.906Z,11.62
2019-03-04T00:47:51.877Z,11.62
2019-03-04T00:48:51.946Z,11.55
2019-03-04T00:49:51.849Z,11.62
2019-03-04T00:50:51.834Z,11.58
2019-03-04T00:51:51.846Z,11.56
2019-03-04T00:52:51.838Z,11.61
2019-03-04T00:53:51.815Z,11.62
2019-03-04T00:54:52.111Z,11.55
2019-03-04T00:55:51.783Z,11.61
2019-03-04T00:56:51.790Z,11.66
2019-03-04T00:57:51.778Z,11.66
2019-03-04T00:58:51.761Z,11.66
2019-03-04T00:59:51.761Z,11.66
2019-03-04T01:00:51.770Z,11.70
2019-03-04T01:01:51.731Z,11.67
2019-03-04T01:02:51.727Z,11.69
2019-03-04T01:03:51.744Z,11.66
2019-03-04T01:04:51.757Z,11.66
2019-03-04T01:05:51.676Z,11.61
2019-03-04T01:06:51.686Z,11.61
2019-03-04T01:07:51.651Z,11.66
2019-03-04T01:08:51.690Z,11.70
2019-03-04T01:09:51.675Z,11.59
2019-03-04T01:10:51.619Z,11.67
2019-03-04T01:11:51.607Z,11.61
2019-03-04T01:12:51.613Z,11.66
2019-03-04T01:13:51.649Z,11.71
2019-03-04T01:14:51.602Z,11.71
2019-03-04T01:15:51.598Z,11.56
2019-03-04T01:16:51.592Z,11.69
2019-03-04T01:17:51.580Z,11.55
2019-03-04T01:18:51.634Z,11.58
2019-03-04T01:19:51.632Z,11.67
2019-03-04T01:20:51.544Z,11.51
2019-03-04T01:21:51.543Z,11.58
2019-03-04T01:22:51.526Z,11.59
2019-03-04T01:23:51.658Z,11.59
2019-03-04T01:24:51.515Z,11.59
2019-03-04T01:25:51.593Z,11.67
2019-03-04T01:26:51.478Z,11.62
2019-03-04T01:27:51.449Z,11.66
2019-03-04T01:28:51.437Z,11.62
2019-03-04T01:29:51.436Z,11.52
2019-03-04T01:30:51.646Z,11.55
2019-03-04T01:31:51.401Z,11.58
2019-03-04T01:32:51.440Z,11.59
2019-03-04T01:33:51.409Z,11.55
2019-03-04T01:34:51.373Z,11.59
2019-03-04T01:35:51.364Z,11.56
2019-03-04T01:36:51.388Z,11.61
2019-03-04T01:37:51.387Z,11.70
2019-03-04T01:38:51.356Z,11.64
2019-03-04T01:39:51.336Z,11.55
2019-03-04T01:40:51.326Z,11.66
2019-03-04T01:41:51.333Z,11.58
2019-03-04T01:42:51.285Z,11.61
2019-03-04T01:43:51.267Z,11.59
2019-03-04T01:44:51.308Z,11.58
2019-03-04T01:45:51.311Z,11.55
2019-03-04T01:46:51.313Z,11.61
2019-03-04T01:47:51.233Z,11.62
2019-03-04T01:48:51.218Z,11.61
2019-03-04T01:49:51.210Z,11.61
2019-03-04T01:50:51.309Z,11.70
2019-03-04T01:51:51.171Z,11.70
2019-03-04T01:52:51.175Z,11.62
2019-03-04T01:53:51.142Z,11.69
2019-03-04T01:54:51.129Z,11.70
2019-03-04T01:55:51.161Z,11.66
2019-03-04T01:56:51.157Z,11.58
2019-03-04T01:57:51.129Z,11.64
2019-03-04T01:58:51.111Z,11.64
2019-03-04T01:59:51.100Z,11.62
2019-03-04T02:00:51.086Z,11.64
2019-03-04T02:01:51.081Z,11.61
2019-03-04T02:02:51.162Z,11.59
2019-03-04T02:03:51.062Z,11.59
2019-03-04T02:04:51.039Z,11.66
2019-03-04T02:05:51.030Z,11.62
2019-03-04T02:06:50.999Z,11.64
2019-03-04T02:07:51.022Z,11.58
2019-03-04T02:08:51.022Z,11.62
2019-03-04T02:09:50.998Z,11.66
2019-03-04T02:10:50.958Z,11.67
2019-03-04T02:11:50.949Z,11.71
2019-03-04T02:12:50.984Z,11.70
2019-03-04T02:13:51.459Z,11.67
2019-03-04T02:14:50.940Z,11.61
2019-03-04T02:15:50.928Z,11.67
2019-03-04T02:16:50.943Z,11.64
2019-03-04T02:17:50.945Z,11.62
2019-03-04T02:18:50.888Z,11.69
2019-03-04T02:19:50.859Z,11.54
2019-03-04T02:20:50.870Z,11.54
2019-03-04T02:21:50.860Z,11.58
2019-03-04T02:22:50.877Z,11.64
2019-03-04T02:23:50.844Z,11.59
2019-03-04T02:24:50.843Z,11.64
2019-03-04T02:25:50.833Z,11.59
2019-03-04T02:26:50.821Z,11.59
2019-03-04T02:27:50.848Z,11.61
2019-03-04T02:28:50.788Z,11.70
2019-03-04T02:29:50.813Z,11.59
2019-03-04T02:30:50.757Z,11.56
2019-03-04T02:31:50.732Z,11.58
2019-03-04T02:32:50.768Z,11.55
2019-03-04T02:33:50.729Z,11.52
2019-03-04T02:34:50.740Z,11.52
2019-03-04T02:35:50.718Z,11.62
2019-03-04T02:36:50.721Z,11.56
2019-03-04T02:37:50.701Z,11.52
2019-03-04T02:38:50.701Z,11.59
2019-03-04T02:39:50.662Z,11.59
2019-03-04T02:40:50.659Z,11.62
2019-03-04T02:41:50.643Z,11.56
2019-03-04T02:42:50.648Z,11.67
2019-03-04T02:43:50.653Z,11.70
2019-03-04T02:44:50.623Z,11.62
2019-03-04T02:45:50.600Z,11.58
2019-03-04T02:46:50.608Z,11.69
2019-03-04T02:47:50.657Z,11.59
2019-03-04T02:48:50.587Z,11.56
2019-03-04T02:49:50.556Z,11.70
2019-03-04T02:50:50.560Z,11.66
2019-03-04T02:51:50.553Z,11.71
2019-03-04T02:52:50.551Z,11.62
2019-03-04T02:53:50.546Z,11.69
2019-03-04T02:54:50.504Z,11.61
2019-03-04T02:55:50.511Z,11.71
2019-03-04T02:56:50.525Z,11.64
2019-03-04T02:57:50.463Z,11.58
2019-03-04T02:58:50.553Z,11.66
2019-03-04T02:59:50.462Z,11.66
2019-03-04T03:00:50.434Z,11.56
2019-03-04T03:01:50.454Z,11.70
2019-03-04T03:02:50.442Z,11.61
2019-03-04T03:03:50.431Z,11.59
2019-03-04T03:04:50.491Z,11.56
2019-03-04T03:05:50.397Z,11.61
2019-03-04T03:06:50.383Z,11.67
2019-03-04T03:07:50.402Z,11.61
2019-03-04T03:08:50.360Z,11.64
2019-03-04T03:09:50.353Z,11.64
2019-03-04T03:10:50.371Z,11.62
2019-03-04T03:11:50.316Z,11.71
2019-03-04T03:12:50.320Z,11.66
2019-03-04T03:13:50.311Z,11.64
2019-03-04T03:14:50.685Z,11.62
2019-03-04T03:15:50.266Z,11.62
2019-03-04T03:16:50.276Z,11.66
2019-03-04T03:17:50.263Z,11.62
2019-03-04T03:18:50.254Z,11.61
2019-03-04T03:19:50.228Z,11.67
2019-03-04T03:20:50.216Z,11.61
2019-03-04T03:21:50.228Z,11.59
2019-03-04T03:22:50.170Z,11.59
2019-03-04T03:23:50.157Z,11.62
2019-03-04T03:24:50.223Z,11.61
2019-03-04T03:25:50.182Z,11.54
2019-03-04T03:26:50.141Z,11.59
2019-03-04T03:27:50.146Z,11.62
2019-03-04T03:28:50.130Z,11.62
2019-03-04T03:29:52.035Z,11.66
2019-03-04T03:32:05.853Z,11.54
2019-03-04T03:33:05.779Z,11.67
2019-03-04T03:34:05.815Z,11.66
2019-03-04T03:35:08.287Z,11.62
2019-03-04T03:36:05.755Z,11.58
2019-03-04T03:37:05.729Z,11.62
2019-03-04T03:38:05.723Z,11.70
2019-03-04T03:39:05.767Z,11.49
2019-03-04T03:40:05.702Z,11.67
2019-03-04T03:41:05.704Z,11.66
2019-03-04T03:42:05.654Z,11.61
2019-03-04T03:43:05.658Z,11.55
2019-03-04T03:44:05.655Z,11.55
2019-03-04T03:45:05.674Z,11.59
2019-03-04T03:46:05.656Z,11.69
2019-03-04T03:47:05.617Z,11.54
2019-03-04T03:48:05.638Z,11.51
2019-03-04T03:49:05.602Z,11.54
2019-03-04T03:50:05.583Z,11.49
2019-03-04T03:51:05.579Z,11.55
2019-03-04T03:52:05.661Z,11.48
2019-03-04T03:53:05.585Z,11.54
2019-03-04T03:54:05.546Z,11.46
2019-03-04T03:55:05.598Z,11.48
2019-03-04T03:56:05.546Z,11.46
2019-03-04T03:57:05.507Z,11.45
2019-03-04T03:58:05.508Z,11.45
2019-03-04T03:59:05.539Z,11.45
2019-03-04T04:00:05.509Z,11.48
2019-03-04T04:01:05.490Z,11.48
2019-03-04T04:02:05.491Z,11.43
2019-03-04T04:03:05.482Z,11.51
2019-03-04T04:04:05.429Z,11.38
2019-03-04T04:05:05.421Z,11.38
2019-03-04T04:06:05.471Z,11.38
2019-03-04T04:07:05.401Z,11.38
2019-03-04T04:08:05.383Z,11.38
2019-03-04T04:09:05.386Z,11.41
2019-03-04T04:10:05.375Z,11.36
2019-03-04T04:11:05.367Z,11.36
2019-03-04T04:12:05.379Z,11.34
2019-03-04T04:13:05.370Z,11.34
2019-03-04T04:14:05.319Z,11.31
2019-03-04T04:15:05.311Z,11.38
2019-03-04T04:16:05.344Z,11.33
2019-03-04T04:17:05.294Z,11.36
2019-03-04T04:18:05.282Z,11.36
2019-03-04T04:19:05.277Z,11.31
2019-03-04T04:20:05.263Z,11.33
2019-03-04T04:21:05.279Z,11.34
2019-03-04T04:22:05.242Z,11.33
2019-03-04T04:23:05.225Z,11.36
2019-03-04T04:24:05.211Z,11.37
2019-03-04T04:25:05.207Z,11.36
2019-03-04T04:26:05.212Z,11.40
2019-03-04T04:27:05.219Z,11.45
2019-03-04T04:28:05.167Z,11.40
2019-03-04T04:29:05.191Z,11.28
2019-03-04T04:30:05.136Z,11.37
2019-03-04T04:31:05.140Z,11.41
2019-03-04T04:32:05.179Z,11.40
2019-03-04T04:33:05.118Z,11.45
2019-03-04T04:34:05.079Z,11.41
2019-03-04T04:35:05.089Z,11.41
2019-03-04T04:36:05.086Z,11.46
2019-03-04T04:37:05.074Z,11.45
2019-03-04T04:38:05.065Z,11.37
2019-03-04T04:39:05.042Z,11.49
2019-03-04T04:40:05.022Z,11.46
2019-03-04T04:41:05.026Z,11.48
2019-03-04T04:42:05.017Z,11.45
2019-03-04T04:43:05.028Z,11.43
2019-03-04T04:44:04.999Z,11.43
2019-03-04T04:45:05.009Z,11.52
2019-03-04T04:46:05.012Z,11.41
2019-03-04T04:47:05.023Z,11.45
2019-03-04T04:48:05.018Z,11.48
2019-03-04T04:49:04.956Z,11.45
2019-03-04T04:50:04.922Z,11.45
2019-03-04T04:51:04.895Z,11.55
2019-03-04T04:52:04.963Z,11.51
2019-03-04T04:53:04.921Z,11.58
2019-03-04T04:54:04.881Z,11.54
2019-03-04T04:55:04.868Z,11.58
2019-03-04T04:56:04.878Z,11.55
2019-03-04T04:57:04.877Z,11.58
2019-03-04T04:58:04.884Z,11.61
2019-03-04T04:59:04.821Z,11.56
2019-03-04T05:00:04.847Z,11.64
2019-03-04T05:01:04.808Z,11.67
2019-03-04T05:02:04.797Z,11.62
2019-03-04T05:03:04.988Z,11.64
2019-03-04T05:04:04.778Z,11.64
2019-03-04T05:05:04.755Z,11.61
2019-03-04T05:06:04.750Z,11.67
2019-03-04T05:07:04.739Z,11.66
2019-03-04T05:08:04.730Z,11.73
2019-03-04T05:09:04.743Z,11.70
2019-03-04T05:10:04.701Z,11.74
2019-03-04T05:11:04.764Z,11.76
2019-03-04T05:12:04.679Z,11.79
2019-03-04T05:13:04.726Z,11.76
2019-03-04T05:14:04.656Z,11.80
2019-03-04T05:15:04.701Z,11.88
2019-03-04T05:16:04.662Z,11.88
2019-03-04T05:17:04.653Z,11.91
2019-03-04T05:18:04.611Z,11.88
2019-03-04T05:19:04.678Z,11.91
2019-03-04T05:20:04.615Z,11.89
2019-03-04T05:21:04.584Z,11.93
2019-03-04T05:22:04.568Z,11.88
2019-03-04T05:23:04.560Z,11.88
2019-03-04T05:24:04.548Z,11.89
2019-03-04T05:25:04.571Z,11.87
2019-03-04T05:26:04.536Z,11.97
2019-03-04T05:27:04.519Z,12.00
2019-03-04T05:28:04.501Z,11.93
2019-03-04T05:29:04.509Z,11.97
2019-03-04T05:30:04.463Z,11.99
2019-03-04T05:31:04.455Z,11.99
2019-03-04T05:32:04.490Z,12.04
2019-03-04T05:33:04.465Z,11.99
2019-03-04T05:34:04.454Z,12.00
2019-03-04T05:35:04.426Z,12.11
2019-03-04T05:36:04.415Z,12.13
2019-03-04T05:37:04.415Z,12.14
2019-03-04T05:38:04.395Z,12.14
2019-03-04T05:39:04.394Z,12.13
2019-03-04T05:40:04.353Z,12.21
2019-03-04T05:41:04.427Z,12.14
2019-03-04T05:42:04.380Z,12.14
2019-03-04T05:43:04.370Z,12.22
2019-03-04T05:44:04.334Z,12.14
2019-03-04T05:45:04.332Z,12.14
2019-03-04T05:46:04.294Z,12.14
2019-03-04T05:47:04.326Z,12.13
2019-03-04T05:48:04.281Z,12.11
2019-03-04T05:49:04.276Z,12.14
2019-03-04T05:50:04.295Z,12.18
2019-03-04T05:51:04.318Z,12.21
2019-03-04T05:52:04.216Z,12.22
2019-03-04T05:53:04.254Z,12.17
2019-03-04T05:54:04.224Z,12.21
2019-03-04T05:55:04.238Z,12.17
2019-03-04T05:56:04.228Z,12.17
2019-03-04T05:57:04.218Z,12.15
2019-03-04T05:58:04.195Z,12.18
2019-03-04T05:59:04.186Z,12.23
2019-03-04T06:00:04.221Z,12.21
2019-03-04T06:01:04.127Z,12.11
2019-03-04T06:02:04.164Z,12.15
2019-03-04T06:03:04.140Z,12.14
2019-03-04T06:04:04.112Z,12.22
2019-03-04T06:05:04.079Z,12.15
2019-03-04T06:06:04.187Z,12.18
2019-03-04T06:07:04.103Z,12.22
2019-03-04T06:08:04.092Z,12.11
2019-03-04T06:09:04.090Z,12.26
2019-03-04T06:10:04.054Z,12.14
2019-03-04T06:11:04.097Z,12.17
2019-03-04T06:12:04.049Z,12.15
2019-03-04T06:13:04.016Z,12.18
2019-03-04T06:14:04.027Z,12.15
2019-03-04T06:15:04.018Z,12.28
2019-03-04T06:16:04.039Z,12.15
2019-03-04T06:17:03.997Z,12.21
2019-03-04T06:18:04.018Z,12.21
2019-03-04T06:19:04.001Z,12.18
2019-03-04T06:20:03.978Z,12.25
2019-03-04T06:21:03.966Z,12.15
2019-03-04T06:22:03.963Z,12.15
2019-03-04T06:23:03.933Z,12.17
2019-03-04T06:24:03.967Z,12.14
2019-03-04T06:25:03.902Z,12.17
2019-03-04T06:26:03.968Z,12.08
2019-03-04T06:27:03.883Z,12.17
2019-03-04T06:28:03.875Z,12.00
2019-03-04T06:29:03.864Z,11.91
2019-03-04T06:30:03.941Z,11.84
2019-03-04T06:31:03.818Z,11.69
2019-03-04T06:32:03.807Z,11.62
2019-03-04T06:33:03.818Z,11.67
2019-03-04T06:34:03.787Z,11.54
2019-03-04T06:35:03.816Z,11.43
2019-03-04T06:36:03.969Z,11.31
2019-03-04T06:37:03.767Z,11.33
2019-03-04T06:38:03.743Z,11.18
2019-03-04T06:39:03.748Z,11.11
2019-03-04T06:40:03.753Z,11.08
2019-03-04T06:41:03.724Z,11.04
2019-03-04T06:42:03.747Z,10.94
2019-03-04T06:43:03.665Z,11.01
2019-03-04T06:44:03.697Z,10.91
2019-03-04T06:45:03.663Z,10.91
2019-03-04T06:46:03.675Z,10.86
2019-03-04T06:47:03.710Z,10.86
2019-03-04T06:48:03.636Z,10.86
2019-03-04T06:49:03.615Z,10.82
2019-03-04T06:50:03.606Z,10.86
2019-03-04T06:51:03.648Z,10.85
2019-03-04T06:52:03.566Z,10.79
2019-03-04T06:53:03.569Z,10.68
2019-03-04T06:54:03.610Z,10.73
2019-03-04T06:55:03.551Z,10.68
2019-03-04T06:56:03.595Z,10.68
2019-03-04T06:57:03.565Z,10.64
2019-03-04T06:58:03.501Z,10.55
2019-03-04T06:59:03.505Z,10.57
2019-03-04T07:00:03.493Z,10.58
2019-03-04T07:01:03.485Z,10.48
2019-03-04T07:02:03.510Z,10.43
2019-03-04T07:03:03.502Z,10.48
2019-03-04T07:04:03.438Z,10.43
2019-03-04T07:05:03.429Z,10.48
2019-03-04T07:06:03.436Z,10.42
2019-03-04T07:07:03.433Z,10.30
2019-03-04T07:08:03.424Z,10.20
2019-03-04T07:09:03.446Z,10.30
2019-03-04T07:10:03.371Z,10.24
2019-03-04T07:11:03.381Z,10.21
2019-03-04T07:12:03.423Z,10.18
2019-03-04T07:13:03.359Z,10.17
2019-03-04T07:14:03.358Z,10.20
2019-03-04T07:15:03.310Z,10.18
2019-03-04T07:16:03.321Z,10.14
2019-03-04T07:17:03.314Z,10.12
2019-03-04T07:18:03.346Z,10.08
2019-03-04T07:19:03.286Z,10.12
2019-03-04T07:20:03.308Z,10.06
2019-03-04T07:21:03.266Z,10.01
2019-03-04T07:22:03.256Z,10.01
2019-03-04T07:23:03.335Z,10.05
2019-03-04T07:24:03.237Z,9.99
2019-03-04T07:25:03.240Z,10.01
2019-03-04T07:26:03.250Z,10.02
2019-03-04T07:27:03.198Z,10.02
2019-03-04T07:28:03.172Z,9.98
2019-03-04T07:29:03.237Z,10.01
2019-03-04T07:30:03.165Z,9.93
2019-03-04T07:31:03.155Z,9.96
2019-03-04T07:32:03.152Z,9.91
2019-03-04T07:33:03.161Z,9.96
2019-03-04T07:34:03.191Z,9.88
2019-03-04T07:35:03.126Z,9.94
2019-03-04T07:36:03.105Z,9.98
2019-03-04T07:37:03.131Z,9.91
2019-03-04T07:38:03.115Z,9.94
2019-03-04T07:39:03.067Z,9.88
2019-03-04T07:40:03.055Z,9.96
2019-03-04T07:41:03.067Z,10.01
2019-03-04T07:42:03.058Z,9.93
2019-03-04T07:43:03.009Z,9.90
2019-03-04T07:44:03.074Z,9.87
2019-03-04T07:45:03.001Z,9.85
2019-03-04T07:46:03.039Z,9.73
2019-03-04T07:47:03.007Z,9.78
2019-03-04T07:48:02.968Z,9.85
2019-03-04T07:49:03.007Z,9.81
2019-03-04T07:50:03.028Z,9.75
2019-03-04T07:51:02.993Z,9.72
2019-03-04T07:52:02.914Z,9.72
2019-03-04T07:53:02.917Z,9.75
2019-03-04T07:54:02.939Z,9.69
2019-03-04T07:55:02.878Z,9.77
2019-03-04T07:56:02.887Z,9.72
2019-03-04T07:57:02.891Z,9.77
2019-03-04T07:58:02.844Z,9.81
2019-03-04T07:59:02.854Z,9.81
2019-03-04T08:00:02.956Z,9.88
2019-03-04T08:01:02.915Z,9.87
2019-03-04T08:02:02.837Z,9.94
2019-03-04T08:03:02.814Z,9.98
2019-03-04T08:04:02.818Z,9.98
2019-03-04T08:05:02.940Z,10.10
2019-03-04T08:06:02.853Z,10.12
2019-03-04T08:07:03.051Z,10.09
2019-03-04T08:08:02.782Z,10.01
2019-03-04T08:09:02.774Z,10.02
2019-03-04T08:10:02.790Z,10.10
2019-03-04T08:11:02.815Z,10.14
2019-03-04T08:12:02.705Z,10.14
2019-03-04T08:13:02.725Z,10.17
2019-03-04T08:14:02.721Z,10.16
2019-03-04T08:15:02.756Z,10.14
2019-03-04T08:16:02.737Z,10.16
2019-03-04T08:17:02.683Z,10.20
2019-03-04T08:18:02.726Z,10.17
2019-03-04T08:19:02.653Z,10.09
2019-03-04T08:20:02.656Z,10.02
2019-03-04T08:21:02.663Z,10.01
2019-03-04T08:22:02.631Z,10.08
2019-03-04T08:23:02.618Z,10.08
2019-03-04T08:24:02.574Z,9.99
2019-03-04T08:25:02.577Z,9.96
2019-03-04T08:26:02.621Z,9.90
2019-03-04T08:27:02.546Z,9.84
2019-03-04T08:28:02.586Z,9.84
2019-03-04T08:29:02.529Z,9.73
2019-03-04T08:30:02.534Z,9.65
2019-03-04T08:31:02.567Z,9.59
2019-03-04T08:32:02.518Z,9.44
2019-03-04T08:33:02.482Z,9.51
2019-03-04T08:34:02.477Z,9.44
2019-03-04T08:35:02.448Z,9.41
2019-03-04T08:36:02.507Z,9.26
2019-03-04T08:37:02.455Z,9.24
2019-03-04T08:38:02.402Z,9.22
2019-03-04T08:39:02.442Z,9.23
2019-03-04T08:40:02.382Z,9.27
2019-03-04T08:41:02.391Z,9.24
2019-03-04T08:42:02.412Z,9.19
2019-03-04T08:43:02.394Z,9.26
2019-03-04T08:44:02.356Z,9.27
2019-03-04T08:45:02.379Z,9.26
2019-03-04T08:46:02.354Z,9.33
2019-03-04T08:47:02.397Z,9.33
2019-03-04T08:48:02.339Z,9.37
2019-03-04T08:49:02.367Z,9.36
2019-03-04T08:50:02.287Z,9.37
2019-03-04T08:51:02.515Z,9.37
2019-03-04T08:52:02.301Z,9.47
2019-03-04T08:53:02.260Z,9.40
2019-03-04T08:54:02.323Z,9.40
2019-03-04T08:55:02.261Z,9.52
2019-03-04T08:56:02.222Z,9.48
2019-03-04T08:57:04.128Z,9.47
2019-03-04T08:58:02.202Z,9.44
2019-03-04T08:59:02.206Z,9.55
2019-03-04T09:00:02.204Z,9.52
2019-03-04T09:01:02.221Z,9.51
2019-03-04T09:02:02.187Z,9.57
2019-03-04T09:03:02.177Z,9.66
2019-03-04T09:04:02.167Z,9.65
2019-03-04T09:05:02.144Z,9.63
2019-03-04T09:06:02.138Z,9.62
2019-03-04T09:07:04.009Z,9.77
2019-03-04T09:08:02.120Z,9.87
2019-03-04T09:09:02.093Z,9.83
2019-03-04T09:10:02.099Z,9.83
2019-03-04T09:11:02.122Z,9.91
2019-03-04T09:12:02.063Z,9.94
2019-03-04T09:13:02.104Z,9.98
2019-03-04T09:14:02.048Z,10.05
2019-03-04T09:15:02.040Z,10.12
2019-03-04T09:16:02.029Z,10.26
2019-03-04T09:17:01.975Z,10.20
2019-03-04T09:18:02.044Z,10.24
2019-03-04T09:19:01.996Z,10.30
2019-03-04T09:20:01.994Z,10.28
2019-03-04T09:21:01.944Z,10.36
2019-03-04T09:22:02.011Z,10.28
2019-03-04T09:23:01.961Z,10.35
2019-03-04T09:24:01.916Z,10.36
2019-03-04T09:25:01.886Z,10.42
2019-03-04T09:26:01.934Z,10.31
2019-03-04T09:27:01.891Z,10.36
2019-03-04T09:28:01.901Z,10.31
2019-03-04T09:29:01.885Z,10.27
2019-03-04T09:30:01.851Z,10.31
2019-03-04T09:31:01.833Z,10.27
2019-03-04T09:32:01.833Z,10.38
2019-03-04T09:33:01.851Z,10.26
2019-03-04T09:34:01.834Z,10.26
2019-03-04T09:35:01.775Z,10.28
2019-03-04T09:36:01.801Z,10.36
2019-03-04T09:37:01.777Z,10.30
2019-03-04T09:38:01.811Z,10.36
2019-03-04T09:39:01.754Z,10.36
2019-03-04T09:40:01.746Z,10.23
2019-03-04T09:41:01.729Z,10.36
2019-03-04T09:42:01.727Z,10.27
2019-03-04T09:43:01.709Z,10.28
2019-03-04T09:44:01.729Z,10.31
2019-03-04T09:45:01.690Z,10.27
2019-03-04T09:46:01.727Z,10.35
2019-03-04T09:47:01.692Z,10.35
2019-03-04T09:48:01.683Z,10.35
2019-03-04T09:49:01.665Z,10.35
2019-03-04T09:50:01.721Z,10.41
2019-03-04T09:51:01.644Z,10.38
2019-03-04T09:52:01.632Z,10.30
2019-03-04T09:53:01.594Z,10.42
2019-03-04T09:54:01.635Z,10.30
2019-03-04T09:55:01.608Z,10.43
2019-03-04T09:56:01.600Z,10.39
2019-03-04T09:57:01.606Z,10.42
2019-03-04T09:58:01.607Z,10.55
2019-03-04T09:59:01.514Z,10.43
2019-03-04T10:00:01.523Z,10.48
2019-03-04T10:01:01.491Z,10.48
2019-03-04T10:02:01.545Z,10.46
2019-03-04T10:03:01.502Z,10.45
2019-03-04T10:04:01.519Z,10.39
2019-03-04T10:05:01.483Z,10.42
2019-03-04T10:06:01.494Z,10.46
2019-03-04T10:07:01.463Z,10.46
2019-03-04T10:08:01.465Z,10.39
2019-03-04T10:09:01.454Z,10.35
2019-03-04T10:10:01.411Z,10.34
2019-03-04T10:11:01.426Z,10.30
2019-03-04T10:12:01.450Z,10.36
2019-03-04T10:13:01.374Z,10.34
2019-03-04T10:14:01.413Z,10.23
2019-03-04T10:15:08.566Z,10.17
2019-03-04T10:16:02.367Z,10.17
2019-03-04T10:17:01.340Z,10.17
2019-03-04T10:18:01.373Z,10.18
2019-03-04T10:19:01.319Z,10.17
2019-03-04T10:20:01.305Z,10.17
2019-03-04T10:21:01.311Z,10.14
2019-03-04T10:22:01.262Z,10.10
2019-03-04T10:23:01.304Z,10.23
2019-03-04T10:24:01.253Z,10.23
2019-03-04T10:25:01.242Z,10.16
2019-03-04T10:26:01.245Z,10.17
2019-03-04T10:27:01.280Z,10.14
2019-03-04T10:28:01.215Z,10.16
2019-03-04T10:29:02.245Z,10.17
2019-03-04T10:30:01.187Z,10.20
2019-03-04T10:31:01.192Z,10.27
2019-03-04T10:32:01.232Z,10.24
2019-03-04T10:33:01.157Z,10.20
2019-03-04T10:34:01.147Z,10.18
2019-03-04T10:35:01.155Z,10.18
2019-03-04T10:36:01.153Z,10.24
2019-03-04T10:37:01.113Z,10.16
2019-03-04T10:38:01.133Z,10.26
2019-03-04T10:39:01.099Z,10.35
2019-03-04T10:40:01.105Z,10.34
2019-03-04T10:41:01.075Z,10.30
2019-03-04T10:42:01.093Z,10.31
2019-03-04T10:43:01.042Z,10.38
2019-03-04T10:44:01.036Z,10.30
2019-03-04T10:45:01.036Z,10.26
2019-03-04T10:46:01.018Z,10.17
2019-03-04T10:47:01.039Z,10.23
2019-03-04T10:48:01.000Z,10.27
2019-03-04T10:49:01.007Z,10.34
2019-03-04T10:50:01.008Z,10.41
2019-03-04T10:51:00.973Z,10.41
2019-03-04T10:52:00.983Z,10.38
2019-03-04T10:53:00.925Z,10.54
2019-03-04T10:54:00.929Z,10.43
2019-03-04T10:55:00.952Z,10.46
2019-03-04T10:56:00.931Z,10.48
2019-03-04T10:57:01.162Z,10.46
2019-03-04T10:58:00.877Z,10.55
2019-03-04T10:59:00.874Z,10.58
2019-03-04T11:00:00.892Z,10.46
2019-03-04T11:01:00.874Z,10.41
2019-03-04T11:02:00.847Z,10.36
2019-03-04T11:03:00.952Z,10.30
2019-03-04T11:04:00.826Z,10.24
2019-03-04T11:05:00.828Z,10.23
2019-03-04T11:06:00.798Z,10.06
2019-03-04T11:07:00.845Z,10.16
2019-03-04T11:08:00.789Z,10.01
2019-03-04T11:09:00.830Z,9.96
2019-03-04T11:10:00.786Z,9.87
2019-03-04T11:11:00.752Z,9.75
2019-03-04T11:12:00.742Z,9.62
2019-03-04T11:13:00.796Z,9.15
2019-03-04T11:14:00.724Z,9.04
2019-03-04T11:15:00.722Z,8.90
2019-03-04T11:16:00.716Z,8.92
2019-03-04T11:17:00.689Z,8.85
2019-03-04T11:18:00.694Z,8.81
2019-03-04T11:19:00.654Z,8.78
2019-03-04T11:20:00.658Z,8.68
2019-03-04T11:21:00.636Z,8.60
2019-03-04T11:22:00.661Z,8.71
2019-03-04T11:23:00.672Z,8.55
2019-03-04T11:24:00.597Z,8.53
2019-03-04T11:25:00.623Z,8.44
2019-03-04T11:26:00.596Z,8.47
2019-03-04T11:27:00.598Z,8.41
2019-03-04T11:28:00.632Z,8.49
2019-03-04T11:29:00.573Z,8.46
2019-03-04T11:30:00.595Z,8.49
2019-03-04T11:31:00.523Z,8.46
2019-03-04T11:32:00.535Z,8.41
2019-03-04T11:33:00.561Z,8.42
2019-03-04T11:34:00.475Z,8.39
2019-03-04T11:35:00.485Z,8.24
2019-03-04T11:36:00.479Z,8.24
2019-03-04T11:37:00.507Z,8.17
2019-03-04T11:38:00.550Z,8.17
2019-03-04T11:39:00.457Z,8.23
2019-03-04T11:40:00.475Z,8.19
2019-03-04T11:41:00.448Z,8.20
2019-03-04T11:42:00.427Z,8.32
2019-03-04T11:43:00.418Z,8.28
2019-03-04T11:44:00.444Z,8.42
2019-03-04T11:45:00.420Z,8.52
2019-03-04T11:46:00.346Z,8.50
2019-03-04T11:47:00.353Z,8.52
2019-03-04T11:48:00.359Z,8.56
2019-03-04T11:49:00.352Z,8.59
2019-03-04T11:50:00.390Z,8.53
2019-03-04T11:51:00.335Z,8.57
2019-03-04T11:52:00.330Z,8.56
2019-03-04T11:53:00.356Z,8.63
2019-03-04T11:54:00.293Z,8.62
2019-03-04T11:55:00.390Z,8.75
2019-03-04T11:56:00.258Z,8.75
2019-03-04T11:57:00.268Z,8.63
2019-03-04T11:58:00.260Z,8.71
2019-03-04T11:59:00.283Z,8.68
2019-03-04T12:00:00.235Z,8.67
2019-03-04T12:01:00.207Z,8.62
2019-03-04T12:02:00.214Z,8.60
2019-03-04T12:03:00.201Z,8.60
2019-03-04T12:04:00.310Z,8.47
2019-03-04T12:05:00.307Z,8.57
2019-03-04T12:06:00.223Z,8.59
2019-03-04T12:07:00.137Z,8.70
2019-03-04T12:08:00.114Z,8.78
2019-03-04T12:09:00.322Z,8.93
2019-03-04T12:10:00.113Z,8.98
2019-03-04T12:11:00.115Z,9.06
2019-03-04T12:12:00.124Z,9.12
2019-03-04T12:13:00.087Z,9.08
2019-03-04T12:14:00.063Z,9.09
2019-03-04T12:15:00.302Z,9.11
2019-03-04T12:16:00.034Z,9.15
2019-03-04T12:17:00.044Z,9.22
2019-03-04T12:18:00.011Z,9.24
2019-03-04T12:19:00.004Z,9.23
2019-03-04T12:20:00.040Z,9.16
2019-03-04T12:21:00.004Z,9.08
2019-03-04T12:22:00.022Z,9.03
2019-03-04T12:23:00.039Z,8.81
2019-03-04T12:23:59.945Z,8.72
2019-03-04T12:24:59.916Z,8.72
2019-03-04T12:25:59.927Z,8.62
2019-03-04T12:26:59.915Z,8.62
2019-03-04T12:27:59.887Z,8.70
2019-03-04T12:28:59.916Z,8.71
2019-03-04T12:29:59.940Z,8.78
2019-03-04T12:30:59.881Z,8.80
2019-03-04T12:31:59.858Z,8.81
2019-03-04T12:32:59.849Z,8.89
2019-03-04T12:33:59.897Z,8.98
2019-03-04T12:34:59.853Z,8.90
2019-03-04T12:35:59.801Z,8.95
2019-03-04T12:36:59.829Z,8.96
2019-03-04T12:37:59.790Z,8.96
2019-03-04T12:38:59.790Z,8.99
2019-03-04T12:39:59.758Z,8.92
2019-03-04T12:40:59.835Z,8.96
2019-03-04T12:41:59.778Z,8.93
2019-03-04T12:42:59.775Z,8.85
2019-03-04T12:43:59.725Z,8.81
2019-03-04T12:44:59.716Z,8.88
2019-03-04T12:45:59.747Z,8.93
2019-03-04T12:46:59.702Z,8.89
2019-03-04T12:47:59.698Z,9.03
2019-03-04T12:48:59.667Z,8.98
2019-03-04T12:49:59.695Z,9.06
2019-03-04T12:50:59.697Z,9.09
2019-03-04T12:51:59.679Z,9.08
2019-03-04T12:52:59.668Z,9.01
2019-03-04T12:53:59.623Z,9.06
2019-03-04T12:54:59.604Z,9.06
2019-03-04T12:55:59.594Z,9.09
2019-03-04T12:56:59.591Z,9.08
2019-03-04T12:57:59.598Z,9.06
2019-03-04T12:58:59.607Z,9.04
2019-03-04T12:59:59.554Z,9.11
2019-03-04T13:00:59.588Z,9.08